Aquadale, North Carolina
Current Conditions -  °F | °C
As of 12:15 AM on Saturday 22 Nov 2014 (Local Time) from KVUJ Reporting Station
Clear Clear  
Wind Chill: 29°   Ceiling: Unl
Heat Index: 29°   Visibility: 10mi
Dew Point: 17°   Wind: 0mph
Humidity: 59%   Direction: NA
Pressure: 30.57"   Gusts: NA
Location:  35.2152°N, 80.1663°W
Report Text: KVUJ 220515Z AUTO 00000KT 10SM CLR M01/M08 A3057 RMK AO2 T10151085
Loading
Personal Weather Stations






























Interactive Weather Map New forecast layout! Learn more

10-Day Weather Forecast

Advertisements
Track Severe Weather on mobile